sensor_id;sensor_type;location;lat;lon;timestamp;pressure;altitude;pressure_sealevel;temperature;humidity
60832;BME280;46665;51.558;-0.448;2023-12-28T00:00:38;99796.41;;;10.20;100.00
60832;BME280;46665;51.558;-0.448;2023-12-28T00:03:22;99760.97;;;10.26;100.00
60832;BME280;46665;51.558;-0.448;2023-12-28T00:06:07;99769.53;;;10.33;100.00
60832;BME280;46665;51.558;-0.448;2023-12-28T00:08:51;99770.72;;;10.27;100.00
60832;BME280;46665;51.558;-0.448;2023-12-28T00:11:35;99758.25;;;10.26;100.00
60832;BME280;46665;51.558;-0.448;2023-12-28T00:14:19;99766.06;;;10.13;100.00
60832;BME280;46665;51.558;-0.448;2023-12-28T00:17:03;99760.13;;;10.11;100.00
60832;BME280;46665;51.558;-0.448;2023-12-28T00:19:47;99763.72;;;10.07;100.00
60832;BME280;46665;51.558;-0.448;2023-12-28T00:22:30;99762.84;;;10.11;100.00
60832;BME280;46665;51.558;-0.448;2023-12-28T00:25:14;99752.06;;;10.20;100.00
60832;BME280;46665;51.558;-0.448;2023-12-28T00:27:58;99776.84;;;10.18;100.00
60832;BME280;46665;51.558;-0.448;2023-12-28T00:30:42;99812.28;;;10.13;100.00
60832;BME280;46665;51.558;-0.448;2023-12-28T00:33:27;99781.56;;;10.13;100.00
60832;BME280;46665;51.558;-0.448;2023-12-28T00:36:11;99768.66;;;10.05;100.00
60832;BME280;46665;51.558;-0.448;2023-12-28T00:38:55;99758.84;;;9.90;100.00
60832;BME280;46665;51.558;-0.448;2023-12-28T00:41:38;99765.56;;;9.79;100.00
60832;BME280;46665;51.558;-0.448;2023-12-28T00:44:22;99752.16;;;9.68;100.00
60832;BME280;46665;51.558;-0.448;2023-12-28T00:47:06;99776.16;;;9.61;100.00
60832;BME280;46665;51.558;-0.448;2023-12-28T00:49:50;99778.16;;;9.55;100.00
60832;BME280;46665;51.558;-0.448;2023-12-28T00:52:34;99782.56;;;9.51;100.00
60832;BME280;46665;51.558;-0.448;2023-12-28T00:55:18;99783.69;;;9.50;100.00
60832;BME280;46665;51.558;-0.448;2023-12-28T00:58:02;99781.75;;;9.51;100.00
60832;BME280;46665;51.558;-0.448;2023-12-28T01:00:47;99782.56;;;9.51;100.00
60832;BME280;46665;51.558;-0.448;2023-12-28T01:03:31;99782.19;;;9.58;100.00
60832;BME280;46665;51.558;-0.448;2023-12-28T01:06:15;99757.66;;;9.63;100.00
60832;BME280;46665;51.558;-0.448;2023-12-28T01:08:59;99762.00;;;9.64;100.00
60832;BME280;46665;51.558;-0.448;2023-12-28T01:11:43;99776.88;;;9.67;100.00
60832;BME280;46665;51.558;-0.448;2023-12-28T01:14:27;99772.84;;;9.64;100.00
60832;BME280;46665;51.558;-0.448;2023-12-28T01:17:11;99785.72;;;9.77;100.00
60832;BME280;46665;51.558;-0.448;2023-12-28T01:19:55;99774.41;;;9.70;100.00
60832;BME280;46665;51.558;-0.448;2023-12-28T01:22:39;99774.16;;;9.67;100.00
60832;BME280;46665;51.558;-0.448;2023-12-28T01:25:23;99786.50;;;9.78;100.00
60832;BME280;46665;51.558;-0.448;2023-12-28T01:28:07;99781.59;;;9.80;100.00
60832;BME280;46665;51.558;-0.448;2023-12-28T01:30:51;99796.09;;;9.89;100.00
60832;BME280;46665;51.558;-0.448;2023-12-28T01:33:35;99781.09;;;9.92;100.00
60832;BME280;46665;51.558;-0.448;2023-12-28T01:36:20;99790.56;;;9.94;100.00
60832;BME280;46665;51.558;-0.448;2023-12-28T01:39:04;99823.09;;;9.99;100.00
60832;BME280;46665;51.558;-0.448;2023-12-28T01:41:48;99785.56;;;10.02;100.00
60832;BME280;46665;51.558;-0.448;2023-12-28T01:44:32;99812.28;;;10.13;100.00
60832;BME280;46665;51.558;-0.448;2023-12-28T01:47:16;99825.44;;;10.06;100.00
60832;BME280;46665;51.558;-0.448;2023-12-28T01:50:01;99813.53;;;10.02;100.00
60832;BME280;46665;51.558;-0.448;2023-12-28T01:52:46;99825.63;;;9.96;100.00
60832;BME280;46665;51.558;-0.448;2023-12-28T01:55:31;99829.09;;;9.83;100.00
60832;BME280;46665;51.558;-0.448;2023-12-28T01:58:17;99840.19;;;9.67;100.00
60832;BME280;46665;51.558;-0.448;2023-12-28T02:01:02;99817.66;;;9.48;100.00
60832;BME280;46665;51.558;-0.448;2023-12-28T02:03:46;99814.34;;;9.32;100.00
60832;BME280;46665;51.558;-0.448;2023-12-28T02:06:30;99823.44;;;9.22;100.00
60832;BME280;46665;51.558;-0.448;2023-12-28T02:09:14;99836.84;;;9.14;100.00
60832;BME280;46665;51.558;-0.448;2023-12-28T02:11:58;99838.09;;;9.21;100.00
60832;BME280;46665;51.558;-0.448;2023-12-28T02:14:42;99838.63;;;9.23;100.00
60832;BME280;46665;51.558;-0.448;2023-12-28T02:17:42;99843.19;;;9.28;100.00
60832;BME280;46665;51.558;-0.448;2023-12-28T02:20:29;99851.91;;;9.25;100.00
60832;BME280;46665;51.558;-0.448;2023-12-28T02:23:14;99844.69;;;9.15;100.00
60832;BME280;46665;51.558;-0.448;2023-12-28T02:25:57;99839.28;;;9.15;100.00
60832;BME280;46665;51.558;-0.448;2023-12-28T02:28:41;99838.47;;;9.15;100.00
60832;BME280;46665;51.558;-0.448;2023-12-28T02:31:37;99844.56;;;9.25;100.00
60832;BME280;46665;51.558;-0.448;2023-12-28T02:34:29;99877.88;;;9.31;100.00
60832;BME280;46665;51.558;-0.448;2023-12-28T02:37:16;99858.59;;;9.32;100.00
60832;BME280;46665;51.558;-0.448;2023-12-28T02:40:01;99840.19;;;9.29;100.00
60832;BME280;46665;51.558;-0.448;2023-12-28T02:42:45;99873.78;;;9.33;100.00
60832;BME280;46665;51.558;-0.448;2023-12-28T02:45:30;99845.22;;;9.36;100.00
60832;BME280;46665;51.558;-0.448;2023-12-28T02:48:14;99850.84;;;9.45;100.00
60832;BME280;46665;51.558;-0.448;2023-12-28T02:50:58;99853.84;;;9.43;100.00
60832;BME280;46665;51.558;-0.448;2023-12-28T02:53:42;99876.47;;;9.58;100.00
60832;BME280;46665;51.558;-0.448;2023-12-28T02:56:26;99862.06;;;9.57;100.00
60832;BME280;46665;51.558;-0.448;2023-12-28T02:59:09;99869.31;;;9.62;100.00
60832;BME280;46665;51.558;-0.448;2023-12-28T03:01:53;99866.13;;;9.60;100.00
60832;BME280;46665;51.558;-0.448;2023-12-28T03:04:37;99867.63;;;9.47;100.00
60832;BME280;46665;51.558;-0.448;2023-12-28T03:07:21;99867.28;;;9.35;100.00
60832;BME280;46665;51.558;-0.448;2023-12-28T03:10:06;99873.84;;;9.28;100.00
60832;BME280;46665;51.558;-0.448;2023-12-28T03:12:50;99868.41;;;9.28;100.00
60832;BME280;46665;51.558;-0.448;2023-12-28T03:15:34;99861.44;;;9.22;100.00
60832;BME280;46665;51.558;-0.448;2023-12-28T03:18:18;99851.59;;;9.26;100.00
60832;BME280;46665;51.558;-0.448;2023-12-28T03:21:02;99877.00;;;9.36;100.00
60832;BME280;46665;51.558;-0.448;2023-12-28T03:23:46;99862.06;;;9.38;100.00
60832;BME280;46665;51.558;-0.448;2023-12-28T03:26:30;99864.50;;;9.40;100.00
60832;BME280;46665;51.558;-0.448;2023-12-28T03:29:14;99868.53;;;9.42;100.00
60832;BME280;46665;51.558;-0.448;2023-12-28T03:31:58;99852.31;;;9.37;100.00
60832;BME280;46665;51.558;-0.448;2023-12-28T03:34:42;99847.34;;;9.39;100.00
60832;BME280;46665;51.558;-0.448;2023-12-28T03:37:27;99853.47;;;9.50;100.00
60832;BME280;46665;51.558;-0.448;2023-12-28T03:40:11;99854.56;;;9.49;100.00
60832;BME280;46665;51.558;-0.448;2023-12-28T03:42:55;99861.56;;;9.55;100.00
60832;BME280;46665;51.558;-0.448;2023-12-28T03:45:39;99852.81;;;9.58;100.00
60832;BME280;46665;51.558;-0.448;2023-12-28T03:48:23;99857.00;;;9.69;100.00
60832;BME280;46665;51.558;-0.448;2023-12-28T03:51:07;99852.06;;;9.71;100.00
60832;BME280;46665;51.558;-0.448;2023-12-28T03:53:51;99853.25;;;9.84;100.00
60832;BME280;46665;51.558;-0.448;2023-12-28T03:56:35;99867.53;;;9.90;100.00
60832;BME280;46665;51.558;-0.448;2023-12-28T03:59:19;99861.63;;;9.88;100.00
60832;BME280;46665;51.558;-0.448;2023-12-28T04:02:03;99862.03;;;9.95;100.00
60832;BME280;46665;51.558;-0.448;2023-12-28T04:04:47;99860.63;;;9.97;100.00
60832;BME280;46665;51.558;-0.448;2023-12-28T04:07:32;99860.34;;;9.99;100.00
60832;BME280;46665;51.558;-0.448;2023-12-28T04:10:28;99885.53;;;10.05;100.00
60832;BME280;46665;51.558;-0.448;2023-12-28T04:13:13;99852.09;;;10.04;100.00
60832;BME280;46665;51.558;-0.448;2023-12-28T04:15:58;99894.91;;;10.12;100.00
60832;BME280;46665;51.558;-0.448;2023-12-28T04:18:42;99893.84;;;10.13;100.00
60832;BME280;46665;51.558;-0.448;2023-12-28T04:21:26;99885.03;;;10.03;100.00
60832;BME280;46665;51.558;-0.448;2023-12-28T04:24:10;99883.66;;;10.05;100.00
60832;BME280;46665;51.558;-0.448;2023-12-28T04:26:55;99883.34;;;10.07;100.00
60832;BME280;46665;51.558;-0.448;2023-12-28T04:29:39;99886.03;;;10.07;100.00
60832;BME280;46665;51.558;-0.448;2023-12-28T04:32:23;99878.41;;;10.09;100.00
60832;BME280;46665;51.558;-0.448;2023-12-28T04:35:08;99890.16;;;10.23;100.00
60832;BME280;46665;51.558;-0.448;2023-12-28T04:37:51;99896.47;;;10.18;100.00
60832;BME280;46665;51.558;-0.448;2023-12-28T04:40:35;99875.72;;;10.23;100.00
60832;BME280;46665;51.558;-0.448;2023-12-28T04:43:19;99870.47;;;10.12;100.00
60832;BME280;46665;51.558;-0.448;2023-12-28T04:46:04;99886.56;;;10.09;100.00
60832;BME280;46665;51.558;-0.448;2023-12-28T04:48:47;99876.22;;;10.11;100.00
60832;BME280;46665;51.558;-0.448;2023-12-28T04:51:32;99895.09;;;10.02;100.00
60832;BME280;46665;51.558;-0.448;2023-12-28T04:54:17;99890.25;;;9.99;100.00
60832;BME280;46665;51.558;-0.448;2023-12-28T04:57:01;99900.22;;;10.04;100.00
60832;BME280;46665;51.558;-0.448;2023-12-28T04:59:44;99900.75;;;10.06;100.00
60832;BME280;46665;51.558;-0.448;2023-12-28T05:02:28;99908.66;;;10.02;100.00
60832;BME280;46665;51.558;-0.448;2023-12-28T05:05:12;99919.47;;;10.07;100.00
60832;BME280;46665;51.558;-0.448;2023-12-28T05:07:57;99921.91;;;10.09;100.00
60832;BME280;46665;51.558;-0.448;2023-12-28T05:10:40;99919.03;;;10.19;100.00
60832;BME280;46665;51.558;-0.448;2023-12-28T05:13:25;99919.81;;;10.19;100.00
60832;BME280;46665;51.558;-0.448;2023-12-28T05:16:09;99898.06;;;10.19;100.00
60832;BME280;46665;51.558;-0.448;2023-12-28T05:18:53;99897.88;;;10.16;100.00
60832;BME280;46665;51.558;-0.448;2023-12-28T05:21:37;99909.66;;;10.25;100.00
60832;BME280;46665;51.558;-0.448;2023-12-28T05:24:21;99903.94;;;10.27;100.00
60832;BME280;46665;51.558;-0.448;2023-12-28T05:27:05;99920.53;;;10.25;100.00
60832;BME280;46665;51.558;-0.448;2023-12-28T05:29:49;99916.38;;;10.14;100.00
60832;BME280;46665;51.558;-0.448;2023-12-28T05:32:33;99924.47;;;10.19;100.00
60832;BME280;46665;51.558;-0.448;2023-12-28T05:35:17;99909.19;;;10.23;100.00
60832;BME280;46665;51.558;-0.448;2023-12-28T05:38:00;99932.81;;;10.23;100.00
60832;BME280;46665;51.558;-0.448;2023-12-28T05:40:44;99935.34;;;10.19;100.00
60832;BME280;46665;51.558;-0.448;2023-12-28T05:43:28;99943.69;;;10.23;100.00
60832;BME280;46665;51.558;-0.448;2023-12-28T05:46:12;99948.94;;;10.19;100.00
60832;BME280;46665;51.558;-0.448;2023-12-28T05:48:56;99944.88;;;10.16;100.00
60832;BME280;46665;51.558;-0.448;2023-12-28T05:51:40;99955.50;;;10.18;100.00
60832;BME280;46665;51.558;-0.448;2023-12-28T05:54:24;99950.63;;;10.15;100.00
60832;BME280;46665;51.558;-0.448;2023-12-28T05:57:09;99963.72;;;10.13;100.00
60832;BME280;46665;51.558;-0.448;2023-12-28T05:59:53;99956.22;;;10.24;100.00
60832;BME280;46665;51.558;-0.448;2023-12-28T06:02:37;99965.97;;;10.25;100.00
60832;BME280;46665;51.558;-0.448;2023-12-28T06:05:21;99970.75;;;10.33;100.00
60832;BME280;46665;51.558;-0.448;2023-12-28T06:08:06;99965.84;;;10.35;100.00
60832;BME280;46665;51.558;-0.448;2023-12-28T06:10:50;99971.66;;;10.28;100.00
60832;BME280;46665;51.558;-0.448;2023-12-28T06:13:34;99961.72;;;10.18;100.00
60832;BME280;46665;51.558;-0.448;2023-12-28T06:16:18;99959.75;;;10.05;100.00
60832;BME280;46665;51.558;-0.448;2023-12-28T06:19:02;99965.22;;;10.00;100.00
60832;BME280;46665;51.558;-0.448;2023-12-28T06:21:46;99968.13;;;10.09;100.00
60832;BME280;46665;51.558;-0.448;2023-12-28T06:24:30;99962.22;;;10.02;100.00
60832;BME280;46665;51.558;-0.448;2023-12-28T06:27:13;99977.28;;;9.94;100.00
60832;BME280;46665;51.558;-0.448;2023-12-28T06:29:58;99977.09;;;9.90;100.00
60832;BME280;46665;51.558;-0.448;2023-12-28T06:32:42;99988.22;;;9.89;100.00
60832;BME280;46665;51.558;-0.448;2023-12-28T06:35:26;99992.63;;;9.85;100.00
60832;BME280;46665;51.558;-0.448;2023-12-28T06:38:10;100011.16;;;9.83;100.00
60832;BME280;46665;51.558;-0.448;2023-12-28T06:40:54;99999.16;;;9.84;100.00
60832;BME280;46665;51.558;-0.448;2023-12-28T06:43:38;99998.44;;;9.78;100.00
60832;BME280;46665;51.558;-0.448;2023-12-28T06:46:21;99991.59;;;9.81;100.00
60832;BME280;46665;51.558;-0.448;2023-12-28T06:49:05;99993.22;;;9.82;100.00
60832;BME280;46665;51.558;-0.448;2023-12-28T06:51:50;100004.31;;;9.85;100.00
60832;BME280;46665;51.558;-0.448;2023-12-28T06:54:34;100018.06;;;9.94;100.00
60832;BME280;46665;51.558;-0.448;2023-12-28T06:57:18;100040.31;;;9.96;100.00
60832;BME280;46665;51.558;-0.448;2023-12-28T07:00:03;100012.69;;;9.89;100.00
60832;BME280;46665;51.558;-0.448;2023-12-28T07:02:48;99999.09;;;9.89;100.00
60832;BME280;46665;51.558;-0.448;2023-12-28T07:05:32;100014.81;;;9.92;100.00
60832;BME280;46665;51.558;-0.448;2023-12-28T07:08:15;100017.53;;;9.92;100.00
60832;BME280;46665;51.558;-0.448;2023-12-28T07:10:59;100011.88;;;9.88;100.00
60832;BME280;46665;51.558;-0.448;2023-12-28T07:13:43;100021.94;;;9.88;100.00
60832;BME280;46665;51.558;-0.448;2023-12-28T07:16:27;100027.94;;;9.85;100.00
60832;BME280;46665;51.558;-0.448;2023-12-28T07:19:12;100023.03;;;9.87;100.00
60832;BME280;46665;51.558;-0.448;2023-12-28T07:21:56;100032.88;;;9.83;100.00
60832;BME280;46665;51.558;-0.448;2023-12-28T07:24:39;100019.00;;;9.84;100.00
60832;BME280;46665;51.558;-0.448;2023-12-28T07:27:23;100030.97;;;9.83;100.00
60832;BME280;46665;51.558;-0.448;2023-12-28T07:30:08;100022.22;;;9.86;100.00
60832;BME280;46665;51.558;-0.448;2023-12-28T07:32:52;100014.34;;;9.85;100.00
60832;BME280;46665;51.558;-0.448;2023-12-28T07:35:36;100035.59;;;9.83;100.00
60832;BME280;46665;51.558;-0.448;2023-12-28T07:38:20;100021.25;;;9.77;100.00
60832;BME280;46665;51.558;-0.448;2023-12-28T07:41:04;100040.22;;;9.82;100.00
60832;BME280;46665;51.558;-0.448;2023-12-28T07:43:48;100052.06;;;9.91;100.00
60832;BME280;46665;51.558;-0.448;2023-12-28T07:46:33;100045.22;;;9.94;100.00
60832;BME280;46665;51.558;-0.448;2023-12-28T07:49:17;100045.50;;;9.92;100.00
60832;BME280;46665;51.558;-0.448;2023-12-28T07:52:01;100038.47;;;9.91;100.00
60832;BME280;46665;51.558;-0.448;2023-12-28T07:54:45;100035.59;;;9.83;100.00
60832;BME280;46665;51.558;-0.448;2023-12-28T07:57:29;100032.31;;;9.86;100.00
60832;BME280;46665;51.558;-0.448;2023-12-28T08:00:13;100048.66;;;9.81;100.00
60832;BME280;46665;51.558;-0.448;2023-12-28T08:02:57;100033.38;;;9.85;100.00
60832;BME280;46665;51.558;-0.448;2023-12-28T08:05:41;100054.69;;;9.77;100.00
60832;BME280;46665;51.558;-0.448;2023-12-28T08:08:25;100047.22;;;9.88;100.00
60832;BME280;46665;51.558;-0.448;2023-12-28T08:11:09;100052.19;;;9.81;100.00
60832;BME280;46665;51.558;-0.448;2023-12-28T08:13:53;100048.59;;;9.86;100.00
60832;BME280;46665;51.558;-0.448;2023-12-28T08:16:38;100057.56;;;9.86;100.00
60832;BME280;46665;51.558;-0.448;2023-12-28T08:19:21;100067.03;;;9.89;100.00
60832;BME280;46665;51.558;-0.448;2023-12-28T08:22:05;100061.66;;;9.84;100.00
60832;BME280;46665;51.558;-0.448;2023-12-28T08:24:50;100063.41;;;9.74;100.00
60832;BME280;46665;51.558;-0.448;2023-12-28T08:27:34;100062.84;;;9.77;100.00
60832;BME280;46665;51.558;-0.448;2023-12-28T08:30:17;100061.72;;;9.79;100.00
60832;BME280;46665;51.558;-0.448;2023-12-28T08:33:01;100068.16;;;9.88;100.00
60832;BME280;46665;51.558;-0.448;2023-12-28T08:35:45;100062.13;;;9.91;100.00
60832;BME280;46665;51.558;-0.448;2023-12-28T08:38:29;100069.16;;;9.92;100.00
60832;BME280;46665;51.558;-0.448;2023-12-28T08:41:20;100065.88;;;9.95;100.00
60832;BME280;46665;51.558;-0.448;2023-12-28T08:44:04;100063.53;;;9.88;100.00
60832;BME280;46665;51.558;-0.448;2023-12-28T08:46:48;100072.38;;;9.75;100.00
60832;BME280;46665;51.558;-0.448;2023-12-28T08:49:32;100078.19;;;9.63;100.00
60832;BME280;46665;51.558;-0.448;2023-12-28T08:52:17;100071.66;;;9.40;100.00
60832;BME280;46665;51.558;-0.448;2023-12-28T08:55:03;100071.81;;;9.25;100.00
60832;BME280;46665;51.558;-0.448;2023-12-28T08:57:48;100090.69;;;9.06;100.00
60832;BME280;46665;51.558;-0.448;2023-12-28T09:00:32;100122.00;;;8.93;100.00
60832;BME280;46665;51.558;-0.448;2023-12-28T09:03:16;100073.88;;;8.70;100.00
60832;BME280;46665;51.558;-0.448;2023-12-28T09:06:00;100069.91;;;8.57;100.00
60832;BME280;46665;51.558;-0.448;2023-12-28T09:08:47;100085.13;;;8.53;100.00
60832;BME280;46665;51.558;-0.448;2023-12-28T09:11:31;100061.31;;;8.44;100.00
60832;BME280;46665;51.558;-0.448;2023-12-28T09:14:15;100072.41;;;8.43;100.00
60832;BME280;46665;51.558;-0.448;2023-12-28T09:16:59;100075.97;;;8.38;100.00
60832;BME280;46665;51.558;-0.448;2023-12-28T09:19:43;100085.47;;;8.36;100.00
60832;BME280;46665;51.558;-0.448;2023-12-28T09:22:27;100085.97;;;8.38;100.00
60832;BME280;46665;51.558;-0.448;2023-12-28T09:25:11;100080.88;;;8.31;100.00
60832;BME280;46665;51.558;-0.448;2023-12-28T09:27:55;100106.06;;;8.42;100.00
60832;BME280;46665;51.558;-0.448;2023-12-28T09:30:39;100111.75;;;8.40;100.00
60832;BME280;46665;51.558;-0.448;2023-12-28T09:33:23;100105.22;;;8.46;100.00
60832;BME280;46665;51.558;-0.448;2023-12-28T09:36:09;100101.41;;;8.48;100.00
60832;BME280;46665;51.558;-0.448;2023-12-28T09:38:53;100101.69;;;8.51;100.00
60832;BME280;46665;51.558;-0.448;2023-12-28T09:41:39;100100.31;;;8.54;100.00
60832;BME280;46665;51.558;-0.448;2023-12-28T09:44:28;100101.09;;;8.59;100.00
60832;BME280;46665;51.558;-0.448;2023-12-28T09:47:12;100094.00;;;8.63;100.00
60832;BME280;46665;51.558;-0.448;2023-12-28T09:49:58;100098.88;;;8.66;100.00
60832;BME280;46665;51.558;-0.448;2023-12-28T09:52:42;100101.28;;;8.68;100.00
60832;BME280;46665;51.558;-0.448;2023-12-28T09:55:26;100092.06;;;8.69;100.00
60832;BME280;46665;51.558;-0.448;2023-12-28T09:58:21;100122.41;;;8.76;100.00
60832;BME280;46665;51.558;-0.448;2023-12-28T10:01:07;100082.84;;;8.70;100.00
60832;BME280;46665;51.558;-0.448;2023-12-28T10:03:53;100067.69;;;8.64;100.00
60832;BME280;46665;51.558;-0.448;2023-12-28T10:06:43;100073.03;;;8.74;100.00
60832;BME280;46665;51.558;-0.448;2023-12-28T10:09:29;100071.34;;;8.83;100.00
60832;BME280;46665;51.558;-0.448;2023-12-28T10:12:18;100072.34;;;8.93;100.00
60832;BME280;46665;51.558;-0.448;2023-12-28T10:15:03;100068.84;;;8.92;100.00
60832;BME280;46665;51.558;-0.448;2023-12-28T10:17:48;100071.81;;;8.90;100.00
60832;BME280;46665;51.558;-0.448;2023-12-28T10:20:34;100089.78;;;9.16;100.00
60832;BME280;46665;51.558;-0.448;2023-12-28T10:23:19;100077.91;;;9.11;100.00
60832;BME280;46665;51.558;-0.448;2023-12-28T10:26:09;100102.44;;;9.30;100.00
60832;BME280;46665;51.558;-0.448;2023-12-28T10:29:01;100090.47;;;9.31;100.00
60832;BME280;46665;51.558;-0.448;2023-12-28T10:31:50;100087.47;;;9.33;100.00
60832;BME280;46665;51.558;-0.448;2023-12-28T10:34:42;100069.94;;;9.20;100.00
60832;BME280;46665;51.558;-0.448;2023-12-28T10:37:32;100093.19;;;9.31;100.00
60832;BME280;46665;51.558;-0.448;2023-12-28T10:40:17;100093.19;;;9.31;100.00
60832;BME280;46665;51.558;-0.448;2023-12-28T10:43:07;100078.03;;;9.25;100.00
60832;BME280;46665;51.558;-0.448;2023-12-28T10:45:55;100079.16;;;9.24;100.00
60832;BME280;46665;51.558;-0.448;2023-12-28T10:48:41;100078.63;;;9.22;100.00
60832;BME280;46665;51.558;-0.448;2023-12-28T10:51:27;100093.19;;;9.31;100.00
60832;BME280;46665;51.558;-0.448;2023-12-28T10:57:23;100076.84;;;9.37;100.00
60832;BME280;46665;51.558;-0.448;2023-12-28T11:00:18;100072.50;;;9.36;100.00
60832;BME280;46665;51.558;-0.448;2023-12-28T11:03:06;100086.13;;;9.30;100.00
60832;BME280;46665;51.558;-0.448;2023-12-28T11:05:53;100063.41;;;9.21;100.00
60832;BME280;46665;51.558;-0.448;2023-12-28T11:08:38;100085.84;;;9.03;100.00
60832;BME280;46665;51.558;-0.448;2023-12-28T11:11:27;100089.44;;;8.93;100.00
60832;BME280;46665;51.558;-0.448;2023-12-28T11:14:12;100098.09;;;8.61;100.00
60832;BME280;46665;51.558;-0.448;2023-12-28T11:16:59;100073.16;;;8.59;100.00
60832;BME280;46665;51.558;-0.448;2023-12-28T11:19:44;100053.38;;;8.58;100.00
60832;BME280;46665;51.558;-0.448;2023-12-28T11:22:28;100060.94;;;8.61;100.00
60832;BME280;46665;51.558;-0.448;2023-12-28T11:25:17;100042.53;;;8.58;100.00
60832;BME280;46665;51.558;-0.448;2023-12-28T11:28:09;100043.00;;;8.65;100.00
60832;BME280;46665;51.558;-0.448;2023-12-28T11:30:53;100039.97;;;8.72;100.00
60832;BME280;46665;51.558;-0.448;2023-12-28T11:33:48;100044.59;;;8.72;100.00
60832;BME280;46665;51.558;-0.448;2023-12-28T11:36:38;100026.88;;;8.79;100.00
60832;BME280;46665;51.558;-0.448;2023-12-28T11:39:31;100032.84;;;8.81;100.00
60832;BME280;46665;51.558;-0.448;2023-12-28T11:42:20;100035.56;;;8.81;100.00
60832;BME280;46665;51.558;-0.448;2023-12-28T11:45:05;100027.69;;;8.80;100.00
60832;BME280;46665;51.558;-0.448;2023-12-28T11:48:02;100039.13;;;8.77;100.00
60832;BME280;46665;51.558;-0.448;2023-12-28T11:50:46;100030.75;;;8.68;100.00
60832;BME280;46665;51.558;-0.448;2023-12-28T11:53:30;100025.16;;;8.59;100.00
60832;BME280;46665;51.558;-0.448;2023-12-28T11:56:16;100028.50;;;8.46;100.00
60832;BME280;46665;51.558;-0.448;2023-12-28T11:59:00;100036.97;;;8.29;100.00
60832;BME280;46665;51.558;-0.448;2023-12-28T12:01:52;100012.91;;;8.17;100.00
60832;BME280;46665;51.558;-0.448;2023-12-28T12:04:36;100002.94;;;8.13;100.00
60832;BME280;46665;51.558;-0.448;2023-12-28T12:07:20;99988.28;;;8.14;100.00
60832;BME280;46665;51.558;-0.448;2023-12-28T12:10:04;99980.19;;;8.09;100.00
60832;BME280;46665;51.558;-0.448;2023-12-28T12:12:52;99978.56;;;8.13;100.00
60832;BME280;46665;51.558;-0.448;2023-12-28T12:15:36;99983.38;;;8.21;100.00
60832;BME280;46665;51.558;-0.448;2023-12-28T12:18:20;99984.13;;;8.27;100.00
60832;BME280;46665;51.558;-0.448;2023-12-28T12:21:04;99975.41;;;8.35;100.00
60832;BME280;46665;51.558;-0.448;2023-12-28T12:23:50;99960.47;;;8.37;100.00
60832;BME280;46665;51.558;-0.448;2023-12-28T12:26:34;99954.72;;;8.49;100.00
60832;BME280;46665;51.558;-0.448;2023-12-28T12:29:20;99959.31;;;8.54;100.00
60832;BME280;46665;51.558;-0.448;2023-12-28T12:32:05;99956.59;;;8.54;100.00
60832;BME280;46665;51.558;-0.448;2023-12-28T12:34:51;99949.75;;;8.61;100.00
60832;BME280;46665;51.558;-0.448;2023-12-28T12:37:35;99957.84;;;8.66;100.00
60832;BME280;46665;51.558;-0.448;2023-12-28T12:40:19;99958.59;;;8.72;100.00
60832;BME280;46665;51.558;-0.448;2023-12-28T12:43:06;99943.38;;;8.76;100.00
60832;BME280;46665;51.558;-0.448;2023-12-28T12:48:29;99958.16;;;8.89;100.00
60832;BME280;46665;51.558;-0.448;2023-12-28T12:51:17;99949.19;;;8.88;100.00
60832;BME280;46665;51.558;-0.448;2023-12-28T12:54:07;99929.41;;;8.88;100.00
60832;BME280;46665;51.558;-0.448;2023-12-28T12:56:54;99924.72;;;8.94;100.00
60832;BME280;46665;51.558;-0.448;2023-12-28T12:59:41;99918.44;;;8.98;100.00
60832;BME280;46665;51.558;-0.448;2023-12-28T13:02:26;99917.72;;;9.17;100.00
60832;BME280;46665;51.558;-0.448;2023-12-28T13:05:11;99933.47;;;9.15;100.00
60832;BME280;46665;51.558;-0.448;2023-12-28T13:07:55;99921.69;;;9.24;100.00
60832;BME280;46665;51.558;-0.448;2023-12-28T13:10:39;99932.50;;;9.29;100.00
60832;BME280;46665;51.558;-0.448;2023-12-28T13:13:23;99943.28;;;9.35;100.00
60832;BME280;46665;51.558;-0.448;2023-12-28T13:16:07;99928.38;;;9.32;100.00
60832;BME280;46665;51.558;-0.448;2023-12-28T13:18:51;99910.25;;;9.27;100.00
60832;BME280;46665;51.558;-0.448;2023-12-28T13:21:35;99914.81;;;9.32;100.00
60832;BME280;46665;51.558;-0.448;2023-12-28T13:24:21;99906.16;;;9.30;100.00
60832;BME280;46665;51.558;-0.448;2023-12-28T13:27:05;99888.22;;;9.29;100.00
60832;BME280;46665;51.558;-0.448;2023-12-28T13:29:51;99894.75;;;9.28;100.00
60832;BME280;46665;51.558;-0.448;2023-12-28T13:32:36;99898.69;;;9.41;100.00
60832;BME280;46665;51.558;-0.448;2023-12-28T13:35:20;99900.34;;;9.37;100.00
60832;BME280;46665;51.558;-0.448;2023-12-28T13:38:04;99903.81;;;9.42;100.00
60832;BME280;46665;51.558;-0.448;2023-12-28T13:40:47;99899.25;;;9.38;100.00
60832;BME280;46665;51.558;-0.448;2023-12-28T13:43:31;99911.13;;;9.42;100.00
60832;BME280;46665;51.558;-0.448;2023-12-28T13:46:15;99895.31;;;9.49;100.00
60832;BME280;46665;51.558;-0.448;2023-12-28T13:48:59;99897.88;;;9.59;100.00
60832;BME280;46665;51.558;-0.448;2023-12-28T13:51:46;99918.00;;;9.58;100.00
60832;BME280;46665;51.558;-0.448;2023-12-28T13:54:30;99907.81;;;9.69;100.00
60832;BME280;46665;51.558;-0.448;2023-12-28T13:57:13;99924.63;;;9.71;100.00
60832;BME280;46665;51.558;-0.448;2023-12-28T13:59:58;99872.03;;;9.62;100.00
60832;BME280;46665;51.558;-0.448;2023-12-28T14:05:23;99891.06;;;9.62;100.00
60832;BME280;46665;51.558;-0.448;2023-12-28T14:08:12;99896.94;;;9.69;100.00
60832;BME280;46665;51.558;-0.448;2023-12-28T14:10:58;99897.59;;;9.61;100.00
60832;BME280;46665;51.558;-0.448;2023-12-28T14:13:43;99872.84;;;9.43;100.00
60832;BME280;46665;51.558;-0.448;2023-12-28T14:16:27;99891.56;;;9.64;100.00
60832;BME280;46665;51.558;-0.448;2023-12-28T14:19:11;99889.72;;;9.59;100.00
60832;BME280;46665;51.558;-0.448;2023-12-28T14:21:56;99894.94;;;9.55;100.00
60832;BME280;46665;51.558;-0.448;2023-12-28T14:24:41;99904.78;;;9.51;100.00